createdAt,value
2023-04-16T00:04:21.941Z,84.73
2023-04-16T00:09:27.617Z,84.96
2023-04-16T00:14:33.285Z,84.46
2023-04-16T00:19:39.524Z,84.76
2023-04-16T00:24:45.105Z,85.06
2023-04-16T00:29:50.549Z,85.65
2023-04-16T00:34:56.195Z,85.62
2023-04-16T00:40:02.090Z,85.77
2023-04-16T00:45:09.424Z,85.39
2023-04-16T00:50:15.283Z,86.15
2023-04-16T00:55:22.233Z,86.23
2023-04-16T01:00:27.882Z,86.59
2023-04-16T01:05:33.796Z,86.25
2023-04-16T01:10:39.293Z,86.35
2023-04-16T01:15:44.823Z,86.51
2023-04-16T01:20:51.684Z,86.60
2023-04-16T01:25:57.301Z,86.52
2023-04-16T01:31:03.508Z,86.41
2023-04-16T01:36:11.103Z,87.04
2023-04-16T01:41:16.684Z,86.89
2023-04-16T01:46:28.242Z,86.99
2023-04-16T01:51:34.057Z,87.37
2023-04-16T01:56:39.503Z,87.39
2023-04-16T02:01:45.265Z,87.46
2023-04-16T02:06:51.037Z,87.23
2023-04-16T02:11:56.549Z,87.70
2023-04-16T02:17:02.529Z,87.16
2023-04-16T02:22:15.903Z,88.06
2023-04-16T02:27:21.579Z,87.75
2023-04-16T02:32:28.778Z,88.01
2023-04-16T02:37:34.446Z,87.92
2023-04-16T02:42:39.994Z,88.31
2023-04-16T02:47:46.208Z,88.27
2023-04-16T02:52:51.861Z,87.78
2023-04-16T02:57:57.412Z,88.34
2023-04-16T03:03:02.952Z,87.97
2023-04-16T03:08:08.916Z,88.28
2023-04-16T03:13:14.486Z,88.07
2023-04-16T03:18:21.633Z,88.00
2023-04-16T03:23:28.811Z,87.85
2023-04-16T03:28:34.322Z,88.08
2023-04-16T03:33:39.997Z,88.09
2023-04-16T03:38:45.912Z,88.22
2023-04-16T03:43:52.131Z,88.42
2023-04-16T03:48:57.721Z,88.22
2023-04-16T03:54:03.400Z,88.27
2023-04-16T03:59:10.957Z,88.29
2023-04-16T04:04:16.951Z,88.33
2023-04-16T04:09:22.716Z,88.09
2023-04-16T04:14:28.332Z,88.03
2023-04-16T04:19:33.911Z,88.46
2023-04-16T04:24:40.683Z,87.93
2023-04-16T04:29:46.274Z,87.78
2023-04-16T04:34:52.152Z,88.21
2023-04-16T04:39:58.320Z,88.14
2023-04-16T04:45:04.361Z,88.42
2023-04-16T04:50:11.859Z,88.25
2023-04-16T04:55:18.400Z,88.47
2023-04-16T05:00:24.130Z,88.85
2023-04-16T05:05:31.405Z,88.33
2023-04-16T05:10:36.930Z,88.38
2023-04-16T05:15:42.555Z,88.23
2023-04-16T05:20:48.066Z,88.73
2023-04-16T05:25:53.583Z,88.35
2023-04-16T05:30:59.115Z,87.83
2023-04-16T05:36:05.027Z,88.22
2023-04-16T05:41:10.816Z,88.30
2023-04-16T05:46:16.391Z,88.29
2023-04-16T05:51:23.291Z,88.43
2023-04-16T05:56:28.890Z,88.27
2023-04-16T06:01:34.625Z,88.32
2023-04-16T06:06:40.546Z,88.53
2023-04-16T06:11:46.457Z,88.75
2023-04-16T06:16:51.879Z,88.71
2023-04-16T06:21:58.050Z,88.18
2023-04-16T06:27:03.719Z,88.31
2023-04-16T06:32:09.406Z,88.37
2023-04-16T06:37:14.834Z,87.60
2023-04-16T06:42:21.223Z,88.17
2023-04-16T06:47:27.277Z,88.06
2023-04-16T06:52:32.944Z,87.84
2023-04-16T06:57:39.273Z,87.92
2023-04-16T07:02:44.871Z,88.30
2023-04-16T07:07:51.905Z,87.93
2023-04-16T07:12:57.635Z,88.02
2023-04-16T07:18:03.106Z,86.88
2023-04-16T07:23:08.704Z,86.27
2023-04-16T07:28:15.796Z,85.91
2023-04-16T07:33:21.384Z,85.99
2023-04-16T07:38:26.813Z,85.61
2023-04-16T07:43:32.401Z,84.57
2023-04-16T07:48:38.186Z,85.17
2023-04-16T07:53:43.800Z,84.85
2023-04-16T07:58:56.151Z,84.56
2023-04-16T08:04:01.903Z,83.48
2023-04-16T08:09:07.759Z,83.96
2023-04-16T08:14:13.660Z,83.49
2023-04-16T08:19:19.380Z,83.11
2023-04-16T08:24:24.961Z,82.64
2023-04-16T08:29:30.393Z,81.44
2023-04-16T14:49:12.208Z,63.39
2023-04-16T14:54:17.834Z,66.94
2023-04-16T14:59:23.347Z,67.68
2023-04-16T15:04:29.070Z,69.05
2023-04-16T15:09:35.970Z,70.04
2023-04-16T15:14:41.475Z,70.86
2023-04-16T15:19:47.651Z,71.92
2023-04-16T15:24:56.088Z,72.45
2023-04-16T15:30:01.592Z,72.63
2023-04-16T15:35:09.848Z,74.05
2023-04-16T15:40:16.071Z,73.86
2023-04-16T15:45:21.715Z,74.13
2023-04-16T15:56:33.234Z,74.88
2023-04-16T16:01:38.840Z,75.32
2023-04-16T16:06:45.596Z,75.85
2023-04-16T16:17:53.617Z,77.10
2023-04-16T16:22:59.360Z,77.68
2023-04-16T16:28:06.746Z,77.82
2023-04-16T16:33:12.566Z,78.30
2023-04-16T16:38:19.952Z,78.45
2023-04-16T16:43:27.321Z,78.92
2023-04-16T16:48:33.002Z,79.48
2023-04-16T16:53:38.537Z,79.67
2023-04-16T16:58:44.010Z,79.83
2023-04-16T17:03:49.591Z,80.05
2023-04-16T17:08:55.248Z,80.11
2023-04-16T17:14:00.854Z,80.17
2023-04-16T17:19:06.373Z,79.97
2023-04-16T17:24:12.145Z,80.07
2023-04-16T17:29:17.968Z,79.76
2023-04-16T17:34:23.924Z,80.51
2023-04-16T17:39:29.584Z,80.21
2023-04-16T17:44:35.164Z,80.10
2023-04-16T17:49:40.753Z,80.34
2023-04-16T17:54:46.325Z,80.59
2023-04-16T17:59:51.929Z,80.37
2023-04-16T18:04:57.416Z,80.89
2023-04-16T18:10:03.027Z,80.64
2023-04-16T18:15:09.235Z,80.87
2023-04-16T18:20:16.324Z,80.40
2023-04-16T18:25:32.295Z,80.00
2023-04-16T18:30:29.426Z,80.26
2023-04-16T18:35:35.110Z,80.50
2023-04-16T18:40:41.691Z,80.26
2023-04-16T18:45:48.302Z,80.21
2023-04-16T18:50:53.813Z,80.03
2023-04-16T18:56:01.049Z,79.79
2023-04-16T19:01:08.295Z,79.25
2023-04-16T19:06:13.895Z,79.12
2023-04-16T19:11:24.853Z,78.93
2023-04-16T19:16:30.704Z,78.48
2023-04-16T19:21:37.172Z,77.72
2023-04-16T19:26:42.759Z,77.70
2023-04-16T19:31:48.303Z,77.24
2023-04-16T19:36:53.964Z,76.71
2023-04-16T19:42:01.049Z,76.89
2023-04-16T19:47:08.288Z,76.59
2023-04-16T19:52:14.237Z,76.74
2023-04-16T19:57:19.765Z,76.79
2023-04-16T20:02:25.430Z,76.30
2023-04-16T20:07:34.343Z,76.24
2023-04-16T20:12:39.812Z,75.61
2023-04-16T20:17:45.500Z,75.90
2023-04-16T20:22:53.483Z,75.48
2023-04-16T20:27:58.946Z,75.57
2023-04-16T20:33:05.664Z,75.42
2023-04-16T20:38:11.179Z,74.97
2023-04-16T20:43:18.404Z,75.12
2023-04-16T20:48:23.877Z,75.06
2023-04-16T20:53:29.710Z,75.05
2023-04-16T20:58:38.267Z,74.85
2023-04-16T21:03:44.154Z,74.41
2023-04-16T21:08:50.019Z,74.17
2023-04-16T21:13:55.521Z,73.84
2023-04-16T21:19:01.281Z,73.43
2023-04-16T21:24:07.152Z,73.33
2023-04-16T21:29:13.017Z,73.59
2023-04-16T21:34:18.596Z,72.87
2023-04-16T21:39:25.754Z,73.33
2023-04-16T21:44:31.206Z,73.15
2023-04-16T21:49:36.780Z,72.93
2023-04-16T21:54:42.438Z,72.70
2023-04-16T21:59:48.916Z,72.40
2023-04-16T22:04:54.504Z,72.41
2023-04-16T22:10:00.007Z,72.23
2023-04-16T22:15:07.287Z,71.93
2023-04-16T22:20:13.231Z,71.15
2023-04-16T22:25:18.890Z,71.74
2023-04-16T22:30:24.469Z,71.57
2023-04-16T22:35:30.161Z,71.92
2023-04-16T22:40:37.236Z,71.39
2023-04-16T22:45:48.701Z,71.61
2023-04-16T22:50:54.347Z,71.07
2023-04-16T22:55:59.831Z,70.81
2023-04-16T23:01:05.543Z,71.21
2023-04-16T23:06:11.067Z,71.35
2023-04-16T23:11:16.661Z,70.86
2023-04-16T23:16:22.190Z,71.17
2023-04-16T23:21:27.987Z,71.07
2023-04-16T23:26:33.497Z,71.06
2023-04-16T23:31:39.056Z,71.50
2023-04-16T23:36:44.579Z,71.01
2023-04-16T23:41:52.072Z,71.16
2023-04-16T23:46:57.838Z,71.18
2023-04-16T23:52:03.368Z,71.28
2023-04-16T23:57:08.813Z,71.60
